sensor_id;sensor_type;location;lat;lon;timestamp;P1;durP1;ratioP1;P2;durP2;ratioP2
78205;SDS011;67480;48.920;12.880;2023-07-09T00:00:21;6.78;;;5.15;;
78205;SDS011;67480;48.920;12.880;2023-07-09T00:02:46;8.65;;;5.25;;
78205;SDS011;67480;48.920;12.880;2023-07-09T00:05:13;5.68;;;4.82;;
78205;SDS011;67480;48.920;12.880;2023-07-09T00:07:40;5.65;;;4.82;;
78205;SDS011;67480;48.920;12.880;2023-07-09T00:10:19;7.75;;;4.88;;
78205;SDS011;67480;48.920;12.880;2023-07-09T00:12:46;5.75;;;4.60;;
78205;SDS011;67480;48.920;12.880;2023-07-09T00:15:12;6.22;;;4.80;;
78205;SDS011;67480;48.920;12.880;2023-07-09T00:17:40;6.03;;;4.82;;
78205;SDS011;67480;48.920;12.880;2023-07-09T00:20:09;5.47;;;4.70;;
78205;SDS011;67480;48.920;12.880;2023-07-09T00:22:38;5.95;;;4.43;;
78205;SDS011;67480;48.920;12.880;2023-07-09T00:25:05;7.43;;;4.90;;
78205;SDS011;67480;48.920;12.880;2023-07-09T00:27:31;5.18;;;4.60;;
78205;SDS011;67480;48.920;12.880;2023-07-09T00:29:56;6.75;;;4.60;;
78205;SDS011;67480;48.920;12.880;2023-07-09T00:32:21;5.45;;;4.53;;
78205;SDS011;67480;48.920;12.880;2023-07-09T00:34:47;6.25;;;4.70;;
78205;SDS011;67480;48.920;12.880;2023-07-09T00:37:16;5.60;;;4.75;;
78205;SDS011;67480;48.920;12.880;2023-07-09T00:39:44;7.97;;;6.78;;
78205;SDS011;67480;48.920;12.880;2023-07-09T00:42:17;9.48;;;7.03;;
78205;SDS011;67480;48.920;12.880;2023-07-09T00:44:45;7.00;;;5.35;;
78205;SDS011;67480;48.920;12.880;2023-07-09T00:47:13;4.95;;;4.15;;
78205;SDS011;67480;48.920;12.880;2023-07-09T00:49:43;5.85;;;4.15;;
78205;SDS011;67480;48.920;12.880;2023-07-09T00:52:26;5.53;;;4.07;;
78205;SDS011;67480;48.920;12.880;2023-07-09T00:54:58;6.07;;;4.50;;
78205;SDS011;67480;48.920;12.880;2023-07-09T00:57:28;5.00;;;4.50;;
78205;SDS011;67480;48.920;12.880;2023-07-09T00:59:56;5.32;;;4.07;;
78205;SDS011;67480;48.920;12.880;2023-07-09T01:02:32;5.00;;;4.47;;
78205;SDS011;67480;48.920;12.880;2023-07-09T01:04:59;7.13;;;4.57;;
78205;SDS011;67480;48.920;12.880;2023-07-09T01:07:26;5.65;;;4.28;;
78205;SDS011;67480;48.920;12.880;2023-07-09T01:09:53;5.70;;;4.93;;
78205;SDS011;67480;48.920;12.880;2023-07-09T01:12:18;5.70;;;4.65;;
78205;SDS011;67480;48.920;12.880;2023-07-09T01:14:45;5.50;;;4.60;;
78205;SDS011;67480;48.920;12.880;2023-07-09T01:17:13;6.05;;;4.25;;
78205;SDS011;67480;48.920;12.880;2023-07-09T01:19:40;17.80;;;5.13;;
78205;SDS011;67480;48.920;12.880;2023-07-09T01:22:13;5.88;;;4.32;;
78205;SDS011;67480;48.920;12.880;2023-07-09T01:27:34;7.63;;;5.00;;
78205;SDS011;67480;48.920;12.880;2023-07-09T01:30:08;6.22;;;4.47;;
78205;SDS011;67480;48.920;12.880;2023-07-09T01:32:42;4.85;;;4.35;;
78205;SDS011;67480;48.920;12.880;2023-07-09T01:35:11;5.07;;;4.57;;
78205;SDS011;67480;48.920;12.880;2023-07-09T01:37:40;5.82;;;4.93;;
78205;SDS011;67480;48.920;12.880;2023-07-09T01:40:06;6.25;;;5.05;;
78205;SDS011;67480;48.920;12.880;2023-07-09T01:42:34;5.93;;;4.57;;
78205;SDS011;67480;48.920;12.880;2023-07-09T01:45:01;7.93;;;4.68;;
78205;SDS011;67480;48.920;12.880;2023-07-09T01:47:29;6.32;;;4.68;;
78205;SDS011;67480;48.920;12.880;2023-07-09T01:49:55;6.95;;;4.80;;
78205;SDS011;67480;48.920;12.880;2023-07-09T01:52:25;6.10;;;4.50;;
78205;SDS011;67480;48.920;12.880;2023-07-09T01:54:53;5.20;;;4.50;;
78205;SDS011;67480;48.920;12.880;2023-07-09T01:57:19;6.75;;;4.88;;
78205;SDS011;67480;48.920;12.880;2023-07-09T01:59:50;5.28;;;4.60;;
78205;SDS011;67480;48.920;12.880;2023-07-09T02:02:16;6.70;;;5.22;;
78205;SDS011;67480;48.920;12.880;2023-07-09T02:04:46;7.20;;;5.45;;
78205;SDS011;67480;48.920;12.880;2023-07-09T02:07:16;7.43;;;5.13;;
78205;SDS011;67480;48.920;12.880;2023-07-09T02:09:42;8.13;;;5.50;;
78205;SDS011;67480;48.920;12.880;2023-07-09T02:12:09;6.30;;;5.30;;
78205;SDS011;67480;48.920;12.880;2023-07-09T02:14:35;6.55;;;5.50;;
78205;SDS011;67480;48.920;12.880;2023-07-09T02:17:01;5.85;;;5.00;;
78205;SDS011;67480;48.920;12.880;2023-07-09T02:19:27;7.03;;;5.30;;
78205;SDS011;67480;48.920;12.880;2023-07-09T02:21:53;5.70;;;4.90;;
78205;SDS011;67480;48.920;12.880;2023-07-09T02:24:19;6.93;;;5.45;;
78205;SDS011;67480;48.920;12.880;2023-07-09T02:26:44;6.15;;;4.95;;
78205;SDS011;67480;48.920;12.880;2023-07-09T02:29:10;6.95;;;5.25;;
78205;SDS011;67480;48.920;12.880;2023-07-09T02:31:35;5.93;;;4.90;;
78205;SDS011;67480;48.920;12.880;2023-07-09T02:34:01;8.15;;;4.90;;
78205;SDS011;67480;48.920;12.880;2023-07-09T02:36:28;5.80;;;5.20;;
78205;SDS011;67480;48.920;12.880;2023-07-09T02:38:53;5.75;;;4.75;;
78205;SDS011;67480;48.920;12.880;2023-07-09T02:41:18;7.30;;;5.35;;
78205;SDS011;67480;48.920;12.880;2023-07-09T02:43:44;6.22;;;4.68;;
78205;SDS011;67480;48.920;12.880;2023-07-09T02:46:09;7.07;;;5.30;;
78205;SDS011;67480;48.920;12.880;2023-07-09T02:48:34;6.95;;;5.50;;
78205;SDS011;67480;48.920;12.880;2023-07-09T02:51:00;7.28;;;5.60;;
78205;SDS011;67480;48.920;12.880;2023-07-09T02:53:25;6.82;;;4.88;;
78205;SDS011;67480;48.920;12.880;2023-07-09T02:55:52;6.15;;;5.43;;
78205;SDS011;67480;48.920;12.880;2023-07-09T02:58:17;11.05;;;5.15;;
78205;SDS011;67480;48.920;12.880;2023-07-09T03:00:42;6.53;;;5.03;;
78205;SDS011;67480;48.920;12.880;2023-07-09T03:03:07;6.45;;;4.93;;
78205;SDS011;67480;48.920;12.880;2023-07-09T03:05:33;12.70;;;8.85;;
78205;SDS011;67480;48.920;12.880;2023-07-09T03:07:58;16.98;;;13.27;;
78205;SDS011;67480;48.920;12.880;2023-07-09T03:10:23;21.55;;;16.10;;
78205;SDS011;67480;48.920;12.880;2023-07-09T03:12:49;6.60;;;5.43;;
78205;SDS011;67480;48.920;12.880;2023-07-09T03:15:14;20.38;;;14.75;;
78205;SDS011;67480;48.920;12.880;2023-07-09T03:17:39;15.40;;;10.88;;
78205;SDS011;67480;48.920;12.880;2023-07-09T03:20:05;6.93;;;5.82;;
78205;SDS011;67480;48.920;12.880;2023-07-09T03:22:32;12.13;;;9.30;;
78205;SDS011;67480;48.920;12.880;2023-07-09T03:24:58;15.18;;;11.07;;
78205;SDS011;67480;48.920;12.880;2023-07-09T03:27:23;6.63;;;5.30;;
78205;SDS011;67480;48.920;12.880;2023-07-09T03:29:48;19.63;;;13.68;;
78205;SDS011;67480;48.920;12.880;2023-07-09T03:32:14;8.20;;;6.00;;
78205;SDS011;67480;48.920;12.880;2023-07-09T03:34:39;6.82;;;5.43;;
78205;SDS011;67480;48.920;12.880;2023-07-09T03:37:04;10.93;;;8.73;;
78205;SDS011;67480;48.920;12.880;2023-07-09T03:39:30;7.57;;;6.22;;
78205;SDS011;67480;48.920;12.880;2023-07-09T03:41:55;6.20;;;5.35;;
78205;SDS011;67480;48.920;12.880;2023-07-09T03:44:20;9.88;;;7.28;;
78205;SDS011;67480;48.920;12.880;2023-07-09T03:46:45;9.13;;;6.60;;
78205;SDS011;67480;48.920;12.880;2023-07-09T03:49:11;8.27;;;5.68;;
78205;SDS011;67480;48.920;12.880;2023-07-09T03:51:36;14.70;;;10.88;;
78205;SDS011;67480;48.920;12.880;2023-07-09T03:54:02;7.53;;;6.35;;
78205;SDS011;67480;48.920;12.880;2023-07-09T03:56:27;7.20;;;5.32;;
78205;SDS011;67480;48.920;12.880;2023-07-09T03:58:53;10.30;;;7.57;;
78205;SDS011;67480;48.920;12.880;2023-07-09T04:01:18;15.82;;;12.25;;
78205;SDS011;67480;48.920;12.880;2023-07-09T04:03:43;12.43;;;10.75;;
78205;SDS011;67480;48.920;12.880;2023-07-09T04:06:09;8.98;;;7.32;;
78205;SDS011;67480;48.920;12.880;2023-07-09T04:08:34;6.53;;;5.18;;
78205;SDS011;67480;48.920;12.880;2023-07-09T04:11:00;6.93;;;5.68;;
78205;SDS011;67480;48.920;12.880;2023-07-09T04:13:27;6.63;;;5.43;;
78205;SDS011;67480;48.920;12.880;2023-07-09T04:15:53;6.47;;;5.80;;
78205;SDS011;67480;48.920;12.880;2023-07-09T04:18:18;10.30;;;7.57;;
78205;SDS011;67480;48.920;12.880;2023-07-09T04:20:47;9.57;;;7.75;;
78205;SDS011;67480;48.920;12.880;2023-07-09T04:23:14;7.50;;;6.63;;
78205;SDS011;67480;48.920;12.880;2023-07-09T04:25:39;7.68;;;6.10;;
78205;SDS011;67480;48.920;12.880;2023-07-09T04:28:05;6.18;;;5.57;;
78205;SDS011;67480;48.920;12.880;2023-07-09T04:30:31;6.80;;;5.65;;
78205;SDS011;67480;48.920;12.880;2023-07-09T04:32:56;7.03;;;5.57;;
78205;SDS011;67480;48.920;12.880;2023-07-09T04:35:22;6.55;;;5.20;;
78205;SDS011;67480;48.920;12.880;2023-07-09T04:37:47;6.05;;;4.90;;
78205;SDS011;67480;48.920;12.880;2023-07-09T04:40:13;7.13;;;4.85;;
78205;SDS011;67480;48.920;12.880;2023-07-09T04:42:38;7.10;;;5.55;;
78205;SDS011;67480;48.920;12.880;2023-07-09T04:45:05;7.50;;;5.30;;
78205;SDS011;67480;48.920;12.880;2023-07-09T04:47:31;6.10;;;5.50;;
78205;SDS011;67480;48.920;12.880;2023-07-09T04:49:56;6.18;;;5.57;;
78205;SDS011;67480;48.920;12.880;2023-07-09T04:52:21;6.63;;;5.35;;
78205;SDS011;67480;48.920;12.880;2023-07-09T04:54:47;8.45;;;7.55;;
78205;SDS011;67480;48.920;12.880;2023-07-09T04:57:15;6.55;;;5.53;;
78205;SDS011;67480;48.920;12.880;2023-07-09T04:59:42;6.25;;;5.60;;
78205;SDS011;67480;48.920;12.880;2023-07-09T05:02:07;6.68;;;5.75;;
78205;SDS011;67480;48.920;12.880;2023-07-09T05:04:33;6.18;;;5.07;;
78205;SDS011;67480;48.920;12.880;2023-07-09T05:06:58;6.78;;;5.53;;
78205;SDS011;67480;48.920;12.880;2023-07-09T05:09:24;6.68;;;6.07;;
78205;SDS011;67480;48.920;12.880;2023-07-09T05:11:50;7.57;;;6.20;;
78205;SDS011;67480;48.920;12.880;2023-07-09T05:14:16;7.88;;;6.18;;
78205;SDS011;67480;48.920;12.880;2023-07-09T05:16:42;7.93;;;6.10;;
78205;SDS011;67480;48.920;12.880;2023-07-09T05:19:08;7.45;;;6.55;;
78205;SDS011;67480;48.920;12.880;2023-07-09T05:21:34;7.22;;;6.13;;
78205;SDS011;67480;48.920;12.880;2023-07-09T05:23:59;7.18;;;6.20;;
78205;SDS011;67480;48.920;12.880;2023-07-09T05:26:25;7.32;;;6.45;;
78205;SDS011;67480;48.920;12.880;2023-07-09T05:28:50;9.93;;;6.68;;
78205;SDS011;67480;48.920;12.880;2023-07-09T05:31:15;10.30;;;9.00;;
78205;SDS011;67480;48.920;12.880;2023-07-09T05:33:41;10.95;;;9.43;;
78205;SDS011;67480;48.920;12.880;2023-07-09T05:36:06;8.57;;;6.70;;
78205;SDS011;67480;48.920;12.880;2023-07-09T05:38:32;8.75;;;6.28;;
78205;SDS011;67480;48.920;12.880;2023-07-09T05:41:03;6.47;;;5.88;;
78205;SDS011;67480;48.920;12.880;2023-07-09T05:43:29;7.55;;;6.40;;
78205;SDS011;67480;48.920;12.880;2023-07-09T05:45:55;9.48;;;7.00;;
78205;SDS011;67480;48.920;12.880;2023-07-09T05:48:20;6.85;;;6.15;;
78205;SDS011;67480;48.920;12.880;2023-07-09T05:50:47;6.82;;;6.13;;
78205;SDS011;67480;48.920;12.880;2023-07-09T05:53:13;9.20;;;6.75;;
78205;SDS011;67480;48.920;12.880;2023-07-09T05:55:39;8.63;;;6.82;;
78205;SDS011;67480;48.920;12.880;2023-07-09T05:58:04;8.00;;;6.40;;
78205;SDS011;67480;48.920;12.880;2023-07-09T06:00:29;7.07;;;6.38;;
78205;SDS011;67480;48.920;12.880;2023-07-09T06:02:55;6.95;;;6.20;;
78205;SDS011;67480;48.920;12.880;2023-07-09T06:05:20;8.75;;;7.00;;
78205;SDS011;67480;48.920;12.880;2023-07-09T06:07:45;7.30;;;6.38;;
78205;SDS011;67480;48.920;12.880;2023-07-09T06:10:11;8.55;;;6.55;;
78205;SDS011;67480;48.920;12.880;2023-07-09T06:12:36;7.90;;;6.95;;
78205;SDS011;67480;48.920;12.880;2023-07-09T06:15:01;8.63;;;6.88;;
78205;SDS011;67480;48.920;12.880;2023-07-09T06:17:27;7.93;;;6.85;;
78205;SDS011;67480;48.920;12.880;2023-07-09T06:19:52;7.78;;;6.93;;
78205;SDS011;67480;48.920;12.880;2023-07-09T06:22:18;7.57;;;6.80;;
78205;SDS011;67480;48.920;12.880;2023-07-09T06:24:44;8.98;;;6.70;;
78205;SDS011;67480;48.920;12.880;2023-07-09T06:27:10;9.98;;;7.25;;
78205;SDS011;67480;48.920;12.880;2023-07-09T06:29:36;7.70;;;6.90;;
78205;SDS011;67480;48.920;12.880;2023-07-09T06:32:01;10.57;;;7.88;;
78205;SDS011;67480;48.920;12.880;2023-07-09T06:34:26;8.85;;;7.28;;
78205;SDS011;67480;48.920;12.880;2023-07-09T06:36:52;9.40;;;7.57;;
78205;SDS011;67480;48.920;12.880;2023-07-09T06:39:17;8.27;;;7.15;;
78205;SDS011;67480;48.920;12.880;2023-07-09T06:41:44;9.07;;;7.03;;
78205;SDS011;67480;48.920;12.880;2023-07-09T06:44:10;8.52;;;7.50;;
78205;SDS011;67480;48.920;12.880;2023-07-09T06:46:35;8.32;;;7.53;;
78205;SDS011;67480;48.920;12.880;2023-07-09T06:49:01;8.82;;;7.45;;
78205;SDS011;67480;48.920;12.880;2023-07-09T06:51:27;9.48;;;7.57;;
78205;SDS011;67480;48.920;12.880;2023-07-09T06:53:53;7.78;;;6.95;;
78205;SDS011;67480;48.920;12.880;2023-07-09T06:56:18;8.20;;;7.40;;
78205;SDS011;67480;48.920;12.880;2023-07-09T06:58:43;8.63;;;6.80;;
78205;SDS011;67480;48.920;12.880;2023-07-09T07:01:11;18.40;;;16.15;;
78205;SDS011;67480;48.920;12.880;2023-07-09T07:03:37;11.68;;;9.82;;
78205;SDS011;67480;48.920;12.880;2023-07-09T07:06:03;8.85;;;6.63;;
78205;SDS011;67480;48.920;12.880;2023-07-09T07:08:30;8.60;;;7.28;;
78205;SDS011;67480;48.920;12.880;2023-07-09T07:10:56;7.90;;;7.00;;
78205;SDS011;67480;48.920;12.880;2023-07-09T07:13:37;8.30;;;6.47;;
78205;SDS011;67480;48.920;12.880;2023-07-09T07:16:08;10.50;;;6.82;;
78205;SDS011;67480;48.920;12.880;2023-07-09T07:18:34;9.35;;;7.03;;
78205;SDS011;67480;48.920;12.880;2023-07-09T07:21:00;8.00;;;6.47;;
78205;SDS011;67480;48.920;12.880;2023-07-09T07:23:26;7.60;;;6.30;;
78205;SDS011;67480;48.920;12.880;2023-07-09T07:25:51;7.30;;;6.57;;
78205;SDS011;67480;48.920;12.880;2023-07-09T07:28:17;8.23;;;6.88;;
78205;SDS011;67480;48.920;12.880;2023-07-09T07:30:43;7.55;;;6.85;;
78205;SDS011;67480;48.920;12.880;2023-07-09T07:33:09;9.27;;;7.22;;
78205;SDS011;67480;48.920;12.880;2023-07-09T07:35:34;6.80;;;6.18;;
78205;SDS011;67480;48.920;12.880;2023-07-09T07:38:01;8.63;;;6.25;;
78205;SDS011;67480;48.920;12.880;2023-07-09T07:40:26;7.70;;;6.30;;
78205;SDS011;67480;48.920;12.880;2023-07-09T07:42:52;8.73;;;6.57;;
78205;SDS011;67480;48.920;12.880;2023-07-09T07:45:17;7.55;;;6.75;;
78205;SDS011;67480;48.920;12.880;2023-07-09T07:47:42;8.23;;;7.30;;
78205;SDS011;67480;48.920;12.880;2023-07-09T07:50:08;10.07;;;7.07;;
78205;SDS011;67480;48.920;12.880;2023-07-09T07:52:34;8.48;;;6.93;;
78205;SDS011;67480;48.920;12.880;2023-07-09T07:55:03;9.35;;;7.38;;
78205;SDS011;67480;48.920;12.880;2023-07-09T07:57:32;9.57;;;6.82;;
78205;SDS011;67480;48.920;12.880;2023-07-09T07:59:57;7.05;;;6.45;;
78205;SDS011;67480;48.920;12.880;2023-07-09T08:02:23;8.07;;;6.70;;
78205;SDS011;67480;48.920;12.880;2023-07-09T08:04:49;8.85;;;6.57;;
78205;SDS011;67480;48.920;12.880;2023-07-09T08:07:16;7.25;;;6.53;;
78205;SDS011;67480;48.920;12.880;2023-07-09T08:09:42;8.25;;;7.28;;
78205;SDS011;67480;48.920;12.880;2023-07-09T08:12:08;8.13;;;7.30;;
78205;SDS011;67480;48.920;12.880;2023-07-09T08:14:36;7.45;;;6.40;;
78205;SDS011;67480;48.920;12.880;2023-07-09T08:17:02;17.42;;;14.55;;
78205;SDS011;67480;48.920;12.880;2023-07-09T08:19:27;7.72;;;6.60;;
78205;SDS011;67480;48.920;12.880;2023-07-09T08:21:53;7.10;;;6.40;;
78205;SDS011;67480;48.920;12.880;2023-07-09T08:24:18;7.82;;;6.68;;
78205;SDS011;67480;48.920;12.880;2023-07-09T08:26:43;8.00;;;6.80;;
78205;SDS011;67480;48.920;12.880;2023-07-09T08:29:09;7.75;;;6.78;;
78205;SDS011;67480;48.920;12.880;2023-07-09T08:31:34;9.57;;;7.20;;
78205;SDS011;67480;48.920;12.880;2023-07-09T08:34:00;7.78;;;6.53;;
78205;SDS011;67480;48.920;12.880;2023-07-09T08:36:25;8.18;;;6.53;;
78205;SDS011;67480;48.920;12.880;2023-07-09T08:38:50;7.85;;;6.22;;
78205;SDS011;67480;48.920;12.880;2023-07-09T08:41:20;10.88;;;9.75;;
78205;SDS011;67480;48.920;12.880;2023-07-09T08:49:43;8.90;;;6.75;;
78205;SDS011;67480;48.920;12.880;2023-07-09T08:52:26;7.05;;;5.40;;
78205;SDS011;67480;48.920;12.880;2023-07-09T08:54:57;7.70;;;6.25;;
78205;SDS011;67480;48.920;12.880;2023-07-09T08:57:31;6.75;;;5.63;;
78205;SDS011;67480;48.920;12.880;2023-07-09T09:00:44;6.25;;;5.65;;
78205;SDS011;67480;48.920;12.880;2023-07-09T09:02:55;7.15;;;5.53;;
78205;SDS011;67480;48.920;12.880;2023-07-09T09:05:24;6.40;;;5.68;;
78205;SDS011;67480;48.920;12.880;2023-07-09T09:07:55;6.57;;;5.90;;
78205;SDS011;67480;48.920;12.880;2023-07-09T09:13:09;8.85;;;6.10;;
78205;SDS011;67480;48.920;12.880;2023-07-09T09:15:37;6.82;;;5.55;;
78205;SDS011;67480;48.920;12.880;2023-07-09T09:18:25;6.10;;;5.50;;
78205;SDS011;67480;48.920;12.880;2023-07-09T09:21:36;5.82;;;5.18;;
78205;SDS011;67480;48.920;12.880;2023-07-09T09:23:49;6.70;;;5.13;;
78205;SDS011;67480;48.920;12.880;2023-07-09T09:26:18;8.00;;;5.35;;
78205;SDS011;67480;48.920;12.880;2023-07-09T09:28:51;5.75;;;4.80;;
78205;SDS011;67480;48.920;12.880;2023-07-09T09:31:17;6.80;;;4.90;;
78205;SDS011;67480;48.920;12.880;2023-07-09T09:33:45;6.57;;;5.03;;
78205;SDS011;67480;48.920;12.880;2023-07-09T09:36:36;6.57;;;5.32;;
78205;SDS011;67480;48.920;12.880;2023-07-09T09:39:01;7.05;;;5.20;;
78205;SDS011;67480;48.920;12.880;2023-07-09T09:41:30;7.65;;;5.70;;
78205;SDS011;67480;48.920;12.880;2023-07-09T09:43:59;7.93;;;5.82;;
78205;SDS011;67480;48.920;12.880;2023-07-09T09:46:25;6.97;;;5.47;;
78205;SDS011;67480;48.920;12.880;2023-07-09T09:48:55;6.00;;;5.22;;
78205;SDS011;67480;48.920;12.880;2023-07-09T09:51:24;6.25;;;5.63;;
78205;SDS011;67480;48.920;12.880;2023-07-09T09:53:55;5.78;;;4.88;;
78205;SDS011;67480;48.920;12.880;2023-07-09T09:58:56;7.63;;;5.55;;
78205;SDS011;67480;48.920;12.880;2023-07-09T10:01:33;6.70;;;5.43;;
78205;SDS011;67480;48.920;12.880;2023-07-09T10:04:00;7.25;;;5.50;;
78205;SDS011;67480;48.920;12.880;2023-07-09T10:11:54;5.65;;;4.93;;
78205;SDS011;67480;48.920;12.880;2023-07-09T10:14:33;6.50;;;4.85;;
78205;SDS011;67480;48.920;12.880;2023-07-09T10:41:19;8.80;;;6.82;;
78205;SDS011;67480;48.920;12.880;2023-07-09T10:43:57;9.52;;;7.25;;
78205;SDS011;67480;48.920;12.880;2023-07-09T10:46:31;9.00;;;7.57;;
78205;SDS011;67480;48.920;12.880;2023-07-09T10:49:00;9.45;;;8.48;;
78205;SDS011;67480;48.920;12.880;2023-07-09T10:51:29;5.15;;;4.65;;
78205;SDS011;67480;48.920;12.880;2023-07-09T10:54:02;11.38;;;6.03;;
78205;SDS011;67480;48.920;12.880;2023-07-09T10:56:51;11.82;;;8.70;;
78205;SDS011;67480;48.920;12.880;2023-07-09T10:59:25;10.60;;;8.75;;
78205;SDS011;67480;48.920;12.880;2023-07-09T11:02:01;8.50;;;7.57;;
78205;SDS011;67480;48.920;12.880;2023-07-09T11:09:58;6.22;;;5.45;;
78205;SDS011;67480;48.920;12.880;2023-07-09T11:12:29;10.60;;;9.50;;
78205;SDS011;67480;48.920;12.880;2023-07-09T11:17:26;6.97;;;5.43;;
78205;SDS011;67480;48.920;12.880;2023-07-09T11:19:59;7.05;;;4.60;;
78205;SDS011;67480;48.920;12.880;2023-07-09T11:22:27;5.07;;;4.57;;
78205;SDS011;67480;48.920;12.880;2023-07-09T11:25:07;6.38;;;4.93;;
78205;SDS011;67480;48.920;12.880;2023-07-09T11:27:32;7.50;;;4.40;;
78205;SDS011;67480;48.920;12.880;2023-07-09T11:32:57;4.95;;;4.35;;
78205;SDS011;67480;48.920;12.880;2023-07-09T11:35:28;5.20;;;4.32;;
78205;SDS011;67480;48.920;12.880;2023-07-09T11:37:54;5.43;;;4.28;;
78205;SDS011;67480;48.920;12.880;2023-07-09T11:40:23;6.65;;;4.20;;
78205;SDS011;67480;48.920;12.880;2023-07-09T11:42:56;5.53;;;4.00;;
78205;SDS011;67480;48.920;12.880;2023-07-09T11:45:24;5.22;;;4.30;;
78205;SDS011;67480;48.920;12.880;2023-07-09T11:50:32;6.15;;;4.05;;
78205;SDS011;67480;48.920;12.880;2023-07-09T11:53:04;4.53;;;3.85;;
78205;SDS011;67480;48.920;12.880;2023-07-09T11:55:42;6.47;;;4.35;;
78205;SDS011;67480;48.920;12.880;2023-07-09T11:58:11;5.90;;;3.85;;
78205;SDS011;67480;48.920;12.880;2023-07-09T12:00:39;6.80;;;4.15;;
78205;SDS011;67480;48.920;12.880;2023-07-09T12:03:17;8.35;;;4.43;;
78205;SDS011;67480;48.920;12.880;2023-07-09T12:05:49;5.50;;;4.38;;
78205;SDS011;67480;48.920;12.880;2023-07-09T12:08:16;4.00;;;3.60;;
78205;SDS011;67480;48.920;12.880;2023-07-09T12:10:43;5.30;;;4.05;;
78205;SDS011;67480;48.920;12.880;2023-07-09T12:13:09;5.15;;;3.70;;
78205;SDS011;67480;48.920;12.880;2023-07-09T12:15:38;4.45;;;3.75;;
78205;SDS011;67480;48.920;12.880;2023-07-09T12:18:09;4.80;;;3.75;;
78205;SDS011;67480;48.920;12.880;2023-07-09T12:20:39;4.22;;;3.72;;
78205;SDS011;67480;48.920;12.880;2023-07-09T12:25:54;3.88;;;3.58;;
78205;SDS011;67480;48.920;12.880;2023-07-09T12:28:20;4.22;;;3.83;;
78205;SDS011;67480;48.920;12.880;2023-07-09T12:30:50;4.18;;;3.78;;
78205;SDS011;67480;48.920;12.880;2023-07-09T12:33:18;4.90;;;3.65;;
78205;SDS011;67480;48.920;12.880;2023-07-09T12:35:44;4.15;;;3.72;;
78205;SDS011;67480;48.920;12.880;2023-07-09T12:38:20;5.90;;;3.78;;
78205;SDS011;67480;48.920;12.880;2023-07-09T12:40:48;4.43;;;3.38;;
78205;SDS011;67480;48.920;12.880;2023-07-09T12:43:20;4.07;;;3.47;;
78205;SDS011;67480;48.920;12.880;2023-07-09T12:45:53;4.00;;;3.60;;
78205;SDS011;67480;48.920;12.880;2023-07-09T12:48:23;4.50;;;3.35;;
78205;SDS011;67480;48.920;12.880;2023-07-09T12:50:51;4.00;;;3.60;;
78205;SDS011;67480;48.920;12.880;2023-07-09T12:56:11;4.57;;;3.83;;
78205;SDS011;67480;48.920;12.880;2023-07-09T12:58:46;4.22;;;3.83;;
78205;SDS011;67480;48.920;12.880;2023-07-09T13:07:03;5.75;;;4.00;;
78205;SDS011;67480;48.920;12.880;2023-07-09T13:10:17;6.60;;;4.28;;
78205;SDS011;67480;48.920;12.880;2023-07-09T13:13:14;4.47;;;3.95;;
78205;SDS011;67480;48.920;12.880;2023-07-09T13:16:12;6.22;;;4.38;;
78205;SDS011;67480;48.920;12.880;2023-07-09T13:19:08;7.10;;;4.10;;
78205;SDS011;67480;48.920;12.880;2023-07-09T13:21:33;5.75;;;3.80;;
78205;SDS011;67480;48.920;12.880;2023-07-09T13:24:08;4.25;;;3.85;;
78205;SDS011;67480;48.920;12.880;2023-07-09T13:27:09;5.30;;;3.70;;
78205;SDS011;67480;48.920;12.880;2023-07-09T13:29:57;5.40;;;3.87;;
78205;SDS011;67480;48.920;12.880;2023-07-09T13:32:28;4.82;;;4.10;;
78205;SDS011;67480;48.920;12.880;2023-07-09T13:35:00;5.63;;;3.83;;
78205;SDS011;67480;48.920;12.880;2023-07-09T13:37:35;4.55;;;3.83;;
78205;SDS011;67480;48.920;12.880;2023-07-09T13:40:07;4.88;;;3.97;;
78205;SDS011;67480;48.920;12.880;2023-07-09T13:42:35;4.63;;;4.22;;
78205;SDS011;67480;48.920;12.880;2023-07-09T13:45:14;4.78;;;3.97;;
78205;SDS011;67480;48.920;12.880;2023-07-09T13:48:00;4.65;;;3.92;;
78205;SDS011;67480;48.920;12.880;2023-07-09T13:50:26;4.60;;;4.20;;
78205;SDS011;67480;48.920;12.880;2023-07-09T13:52:51;5.15;;;3.78;;
78205;SDS011;67480;48.920;12.880;2023-07-09T13:55:18;4.50;;;3.92;;
78205;SDS011;67480;48.920;12.880;2023-07-09T13:57:47;5.05;;;4.10;;
78205;SDS011;67480;48.920;12.880;2023-07-09T14:00:14;5.85;;;4.30;;
78205;SDS011;67480;48.920;12.880;2023-07-09T14:02:40;4.45;;;3.95;;
78205;SDS011;67480;48.920;12.880;2023-07-09T14:05:06;5.38;;;4.07;;
78205;SDS011;67480;48.920;12.880;2023-07-09T14:07:34;4.65;;;4.20;;
78205;SDS011;67480;48.920;12.880;2023-07-09T14:10:02;6.05;;;4.32;;
78205;SDS011;67480;48.920;12.880;2023-07-09T14:12:34;4.25;;;3.85;;
78205;SDS011;67480;48.920;12.880;2023-07-09T14:15:14;5.05;;;4.18;;
78205;SDS011;67480;48.920;12.880;2023-07-09T14:17:41;5.88;;;4.40;;
78205;SDS011;67480;48.920;12.880;2023-07-09T14:20:10;6.68;;;4.30;;
78205;SDS011;67480;48.920;12.880;2023-07-09T14:22:36;4.82;;;3.95;;
78205;SDS011;67480;48.920;12.880;2023-07-09T14:25:03;4.53;;;4.13;;
78205;SDS011;67480;48.920;12.880;2023-07-09T14:27:29;6.15;;;4.22;;
78205;SDS011;67480;48.920;12.880;2023-07-09T14:29:55;4.55;;;3.95;;
78205;SDS011;67480;48.920;12.880;2023-07-09T14:32:34;4.97;;;4.40;;
78205;SDS011;67480;48.920;12.880;2023-07-09T14:35:03;5.80;;;4.18;;
78205;SDS011;67480;48.920;12.880;2023-07-09T14:37:35;6.07;;;4.63;;
78205;SDS011;67480;48.920;12.880;2023-07-09T14:40:01;4.93;;;4.38;;
78205;SDS011;67480;48.920;12.880;2023-07-09T14:42:26;5.80;;;4.55;;
78205;SDS011;67480;48.920;12.880;2023-07-09T14:44:51;4.93;;;3.90;;
78205;SDS011;67480;48.920;12.880;2023-07-09T14:47:18;4.40;;;3.88;;
78205;SDS011;67480;48.920;12.880;2023-07-09T14:49:44;4.43;;;4.03;;
78205;SDS011;67480;48.920;12.880;2023-07-09T14:52:14;5.25;;;3.72;;
78205;SDS011;67480;48.920;12.880;2023-07-09T14:54:42;5.95;;;4.22;;
78205;SDS011;67480;48.920;12.880;2023-07-09T14:57:16;8.93;;;4.13;;
78205;SDS011;67480;48.920;12.880;2023-07-09T14:59:44;5.65;;;4.35;;
78205;SDS011;67480;48.920;12.880;2023-07-09T15:02:17;5.88;;;4.65;;
78205;SDS011;67480;48.920;12.880;2023-07-09T15:05:06;6.25;;;4.55;;
78205;SDS011;67480;48.920;12.880;2023-07-09T15:07:37;5.97;;;4.03;;
78205;SDS011;67480;48.920;12.880;2023-07-09T15:10:02;4.75;;;4.20;;
78205;SDS011;67480;48.920;12.880;2023-07-09T15:12:32;4.43;;;3.67;;
78205;SDS011;67480;48.920;12.880;2023-07-09T15:15:12;7.32;;;4.40;;
78205;SDS011;67480;48.920;12.880;2023-07-09T15:17:41;5.80;;;3.83;;
78205;SDS011;67480;48.920;12.880;2023-07-09T15:20:22;8.05;;;5.05;;
78205;SDS011;67480;48.920;12.880;2023-07-09T15:22:49;7.60;;;4.30;;
78205;SDS011;67480;48.920;12.880;2023-07-09T15:25:19;5.65;;;4.13;;
78205;SDS011;67480;48.920;12.880;2023-07-09T15:27:46;5.32;;;4.45;;
78205;SDS011;67480;48.920;12.880;2023-07-09T15:30:16;5.68;;;3.75;;
78205;SDS011;67480;48.920;12.880;2023-07-09T15:32:47;5.30;;;3.80;;
78205;SDS011;67480;48.920;12.880;2023-07-09T15:35:13;5.68;;;4.22;;
78205;SDS011;67480;48.920;12.880;2023-07-09T15:37:40;4.45;;;4.05;;
78205;SDS011;67480;48.920;12.880;2023-07-09T15:40:17;5.00;;;4.43;;
78205;SDS011;67480;48.920;12.880;2023-07-09T15:42:48;5.68;;;4.20;;
78205;SDS011;67480;48.920;12.880;2023-07-09T15:45:16;6.60;;;3.70;;
78205;SDS011;67480;48.920;12.880;2023-07-09T15:47:44;6.15;;;4.35;;
78205;SDS011;67480;48.920;12.880;2023-07-09T15:52:43;5.68;;;3.97;;